Time;durP1;ratioP1;P1;durP2;ratioP2;P2;SDS_P1;SDS_P2;PMS_P1;PMS_P2;Temp;Humidity;BMP_temperature;BMP_pressure;BME280_temperature;BME280_humidity;BME280_pressure;Samples;Min_cycle;Max_cycle;Signal;HPM_P1;HPM_P2
2022/09/12 00:01:21;;;;;;;7.60;6.07;;;12.10;99.90;;;;;;5073992;28;20860;-73
2022/09/12 00:03:50;;;;;;;6.50;5.90;;;12.00;99.90;;;;;;5074483;28;20379;-69
2022/09/12 00:06:31;;;;;;;6.20;5.80;;;12.00;99.90;;;;;;5088341;28;20470;-68
2022/09/12 00:09:00;;;;;;;5.70;5.27;;;12.00;99.90;;;;;;5073320;28;20421;-68
2022/09/12 00:11:27;;;;;;;5.87;5.37;;;12.00;99.90;;;;;;5074749;28;20405;-69
2022/09/12 00:14:00;;;;;;;7.50;5.97;;;12.00;99.90;;;;;;5073573;28;20484;-68
2022/09/12 00:16:28;;;;;;;7.50;6.80;;;12.00;99.90;;;;;;5055406;28;20412;-69
2022/09/12 00:18:54;;;;;;;6.77;6.20;;;12.00;99.90;;;;;;5089596;28;20431;-68
2022/09/12 00:21:21;;;;;;;5.57;5.07;;;11.90;99.90;;;;;;5073567;28;20379;-73
2022/09/12 00:23:47;;;;;;;6.17;5.60;;;11.90;99.90;;;;;;5074293;28;20467;-73
2022/09/12 00:26:13;;;;;;;6.13;5.63;;;11.90;99.90;;;;;;5055286;28;20412;-72
2022/09/12 00:28:42;;;;;;;6.20;5.60;;;11.90;94.10;;;;;;5072829;28;20428;-68
2022/09/12 00:31:18;;;;;;;6.20;5.77;;;11.90;98.00;;;;;;5073555;28;20383;-69
2022/09/12 00:33:45;;;;;;;6.87;6.27;;;11.80;99.90;;;;;;5073306;28;20378;-69
2022/09/12 00:36:19;;;;;;;6.83;5.63;;;11.80;92.90;;;;;;5072699;28;20872;-73
2022/09/12 00:38:45;;;;;;;5.80;5.40;;;11.80;95.10;;;;;;5073226;28;20418;-74
2022/09/12 00:41:38;;;;;;;6.20;5.60;;;11.80;95.50;;;;;;5073128;28;20404;-69
2022/09/12 00:44:22;;;;;;;6.20;5.60;;;11.80;93.00;;;;;;5073837;28;20444;-68
2022/09/12 00:47:04;;;;;;;8.80;6.30;;;11.80;94.60;;;;;;5072044;28;20763;-73
2022/09/12 00:49:34;;;;;;;7.43;6.73;;;11.70;96.00;;;;;;5073159;28;20490;-73
2022/09/12 00:52:03;;;;;;;7.70;6.20;;;11.70;95.30;;;;;;5072920;28;20375;-68
2022/09/12 00:54:37;;;;;;;7.20;6.67;;;11.70;96.70;;;;;;5073158;28;20849;-69
2022/09/12 00:57:10;;;;;;;9.80;6.10;;;11.70;98.30;;;;;;5072392;28;20435;-69
2022/09/12 00:59:57;;;;;;;6.47;5.90;;;11.70;99.90;;;;;;5073180;28;20462;-73
2022/09/12 01:02:23;;;;;;;11.53;6.50;;;11.70;99.90;;;;;;5072929;28;20401;-73
2022/09/12 01:04:50;;;;;;;6.87;6.27;;;11.70;99.90;;;;;;5088771;28;20449;-70
2022/09/12 01:07:17;;;;;;;7.87;5.80;;;11.70;99.90;;;;;;5071619;28;20454;-68
2022/09/12 01:09:44;;;;;;;6.40;5.80;;;11.70;98.30;;;;;;5072859;28;20732;-73
2022/09/12 01:12:13;;;;;;;7.60;6.87;;;11.60;99.80;;;;;;5073007;28;20834;-70
2022/09/12 01:14:39;;;;;;;7.17;6.50;;;11.60;99.90;;;;;;5073416;28;20803;-68
2022/09/12 01:17:05;;;;;;;10.63;6.53;;;11.60;99.90;;;;;;5074446;28;20488;-69
2022/09/12 01:19:34;;;;;;;7.60;6.90;;;11.60;98.60;;;;;;5077040;28;20593;-73
2022/09/12 01:22:28;;;;;;;8.20;6.80;;;11.60;97.60;;;;;;5076972;28;20174;-72
2022/09/12 01:25:09;;;;;;;6.90;6.30;;;11.60;99.80;;;;;;5052987;28;20463;-68
2022/09/12 01:27:46;;;;;;;7.13;6.10;;;11.60;94.90;;;;;;5076001;28;20376;-68
2022/09/12 01:30:39;;;;;;;7.20;6.50;;;11.60;96.20;;;;;;5076832;28;20404;-68
2022/09/12 01:33:07;;;;;;;7.13;6.53;;;11.50;99.30;;;;;;5077117;28;20400;-73
2022/09/12 01:35:54;;;;;;;10.63;9.53;;;11.50;99.20;;;;;;5076821;28;20408;-73
2022/09/12 01:38:35;;;;;;;14.80;9.20;;;11.50;96.50;;;;;;5076113;28;20788;-73
2022/09/12 01:41:27;;;;;;;9.50;8.60;;;11.50;93.40;;;;;;5076531;28;20389;-68
2022/09/12 01:44:05;;;;;;;17.50;6.57;;;11.50;95.50;;;;;;5076527;28;20400;-73
2022/09/12 01:46:56;;;;;;;10.30;8.30;;;11.40;99.30;;;;;;5075501;28;20969;-73
2022/09/12 01:49:24;;;;;;;7.73;6.90;;;11.50;98.80;;;;;;5076471;28;20390;-68
2022/09/12 01:52:24;;;;;;;7.20;6.50;;;11.50;97.80;;;;;;5076507;28;20412;-69
2022/09/12 01:55:11;;;;;;;7.97;6.30;;;11.40;99.90;;;;;;5076412;28;20410;-73
2022/09/12 01:57:48;;;;;;;6.70;6.13;;;11.40;97.80;;;;;;5075579;28;20402;-68
2022/09/12 02:00:14;;;;;;;10.80;6.30;;;11.40;96.80;;;;;;5076439;28;20378;-69
2022/09/12 02:02:47;;;;;;;8.03;7.20;;;11.30;93.60;;;;;;5075545;28;20408;-73
2022/09/12 02:05:31;;;;;;;6.30;5.80;;;11.30;92.50;;;;;;5076147;28;20497;-73
2022/09/12 02:08:07;;;;;;;10.73;6.50;;;11.30;97.00;;;;;;5075487;28;20391;-73
2022/09/12 02:10:42;;;;;;;8.87;7.40;;;11.30;98.50;;;;;;5058355;28;20395;-68
2022/09/12 02:13:20;;;;;;;6.83;6.23;;;11.30;95.40;;;;;;5076086;28;20394;-69
2022/09/12 02:15:57;;;;;;;8.03;6.83;;;11.30;98.70;;;;;;5075835;28;20379;-68
2022/09/12 02:18:26;;;;;;;7.17;6.47;;;11.30;99.50;;;;;;5075427;28;20429;-71
2022/09/12 02:20:54;;;;;;;7.03;6.37;;;11.20;94.30;;;;;;5075483;28;20379;-69
2022/09/12 02:23:25;;;;;;;7.07;6.33;;;11.20;95.50;;;;;;5075704;28;20440;-73
2022/09/12 02:26:00;;;;;;;6.67;6.17;;;11.20;92.50;;;;;;5075649;28;20908;-68
2022/09/12 02:28:40;;;;;;;6.83;6.17;;;11.20;92.50;;;;;;5074952;28;20399;-68
2022/09/12 02:31:22;;;;;;;7.03;6.47;;;11.20;94.80;;;;;;5057518;28;20420;-73
2022/09/12 02:34:20;;;;;;;7.20;6.50;;;11.10;92.80;;;;;;5075595;28;20959;-72
2022/09/12 02:37:04;;;;;;;9.10;6.10;;;11.10;93.50;;;;;;5074595;28;20385;-68
2022/09/12 02:39:30;;;;;;;6.63;6.03;;;11.10;94.40;;;;;;5057459;28;20437;-68
2022/09/12 02:41:59;;;;;;;6.83;6.23;;;11.10;92.40;;;;;;5075458;28;20375;-68
2022/09/12 02:44:28;;;;;;;6.37;5.33;;;11.10;93.30;;;;;;5075423;28;20434;-68
2022/09/12 02:47:21;;;;;;;7.47;6.80;;;11.00;92.40;;;;;;5074717;28;20452;-69
2022/09/12 02:49:48;;;;;;;7.47;5.63;;;11.00;92.40;;;;;;5075235;28;20433;-68
2022/09/12 02:52:14;;;;;;;6.90;6.30;;;11.00;92.50;;;;;;5057506;28;20404;-73
2022/09/12 02:54:41;;;;;;;8.27;7.20;;;11.00;92.60;;;;;;5075309;28;20424;-69
2022/09/12 02:57:18;;;;;;;8.07;7.30;;;11.00;93.10;;;;;;5074196;28;20402;-73
2022/09/12 02:59:44;;;;;;;7.60;6.90;;;11.00;93.80;;;;;;5074973;28;20391;-69
2022/09/12 03:02:19;;;;;;;7.63;6.83;;;11.00;93.20;;;;;;5075097;28;20420;-73
2022/09/12 03:04:48;;;;;;;6.10;5.50;;;11.00;92.50;;;;;;5075019;28;20444;-73
2022/09/12 03:07:26;;;;;;;8.10;6.70;;;11.00;92.50;;;;;;5074307;28;20400;-72
2022/09/12 03:09:57;;;;;;;7.90;6.10;;;11.00;95.80;;;;;;5056856;28;20446;-72
2022/09/12 03:12:28;;;;;;;7.33;6.63;;;11.00;92.50;;;;;;5075090;28;20727;-72
2022/09/12 03:14:54;;;;;;;7.83;7.20;;;10.90;96.70;;;;;;5090144;28;20411;-72
2022/09/12 03:17:22;;;;;;;7.30;6.60;;;10.90;96.00;;;;;;5074137;28;20415;-73
2022/09/12 03:20:00;;;;;;;9.50;6.83;;;10.90;93.90;;;;;;5074789;28;20643;-73
2022/09/12 03:22:46;;;;;;;7.47;6.50;;;10.90;92.40;;;;;;5074754;28;20382;-71
2022/09/12 03:25:15;;;;;;;7.27;6.67;;;10.90;92.40;;;;;;5074594;28;20460;-68
2022/09/12 03:27:56;;;;;;;9.40;7.60;;;10.90;92.40;;;;;;5073875;28;20466;-68
2022/09/12 03:30:22;;;;;;;6.97;5.93;;;10.90;92.40;;;;;;5074624;28;20889;-69
2022/09/12 03:32:51;;;;;;;8.93;6.93;;;10.90;92.40;;;;;;5073850;28;20380;-72
2022/09/12 03:35:19;;;;;;;7.77;6.90;;;10.90;92.70;;;;;;5074356;28;20567;-68
2022/09/12 03:37:46;;;;;;;9.47;5.97;;;10.90;95.30;;;;;;5073808;28;20436;-72
2022/09/12 03:40:14;;;;;;;6.67;5.97;;;10.90;93.00;;;;;;5073523;28;20444;-68
2022/09/12 03:42:40;;;;;;;7.53;6.87;;;10.80;92.80;;;;;;5075108;28;20426;-73
2022/09/12 03:45:07;;;;;;;7.77;7.03;;;10.80;93.40;;;;;;5074116;28;20426;-69
2022/09/12 03:47:33;;;;;;;7.17;5.87;;;10.80;93.30;;;;;;5073468;28;20411;-73
2022/09/12 03:49:58;;;;;;;7.83;6.93;;;10.80;95.90;;;;;;5073522;28;20457;-73
2022/09/12 03:52:24;;;;;;;7.83;7.03;;;10.80;92.40;;;;;;5074158;28;20170;-72
2022/09/12 03:54:50;;;;;;;7.00;6.40;;;10.80;92.50;;;;;;5074091;28;20174;-68
2022/09/12 03:57:15;;;;;;;7.73;6.73;;;10.80;92.40;;;;;;5073264;28;20186;-68
2022/09/12 03:59:41;;;;;;;7.00;6.30;;;10.80;92.40;;;;;;5073951;28;20202;-73
2022/09/12 04:02:08;;;;;;;7.77;6.77;;;10.80;92.30;;;;;;5073770;28;20170;-73
2022/09/12 04:04:34;;;;;;;7.57;6.87;;;10.80;92.30;;;;;;5073854;28;20198;-73
2022/09/12 04:07:00;;;;;;;8.00;7.30;;;10.70;92.30;;;;;;5073117;28;20927;-68
2022/09/12 04:09:25;;;;;;;9.93;7.60;;;10.70;92.30;;;;;;5073701;28;20190;-73
2022/09/12 04:11:51;;;;;;;11.43;10.00;;;10.70;92.30;;;;;;5073832;28;20269;-68
2022/09/12 04:14:17;;;;;;;14.87;10.90;;;10.70;92.40;;;;;;5073823;28;20530;-73
2022/09/12 04:16:42;;;;;;;13.03;10.90;;;10.70;92.30;;;;;;5073002;28;20631;-68
2022/09/12 04:19:10;;;;;;;8.73;7.73;;;10.70;92.50;;;;;;5073966;28;20292;-72
2022/09/12 04:21:36;;;;;;;8.07;7.30;;;10.70;92.30;;;;;;5073598;28;20181;-72
2022/09/12 04:24:02;;;;;;;9.83;7.20;;;10.80;92.40;;;;;;5073460;28;20400;-68
2022/09/12 04:26:33;;;;;;;7.00;6.40;;;10.80;92.40;;;;;;5072807;28;20247;-68
2022/09/12 04:28:59;;;;;;;6.87;6.27;;;10.80;92.30;;;;;;5073032;28;20868;-70
2022/09/12 04:31:25;;;;;;;7.20;6.43;;;10.70;92.80;;;;;;5073350;28;20386;-72
2022/09/12 04:33:59;;;;;;;6.87;6.07;;;10.70;92.30;;;;;;5073108;28;20400;-68
2022/09/12 04:36:26;;;;;;;7.53;6.40;;;10.70;92.30;;;;;;5072760;28;20377;-70
2022/09/12 04:38:52;;;;;;;6.07;5.60;;;10.60;92.20;;;;;;5073301;28;20425;-73
2022/09/12 04:41:25;;;;;;;6.40;5.80;;;10.60;92.30;;;;;;5073235;28;20379;-73
2022/09/12 04:44:05;;;;;;;6.67;5.90;;;10.60;92.30;;;;;;5072960;28;20379;-72
2022/09/12 04:46:35;;;;;;;6.87;6.27;;;10.60;92.50;;;;;;5072512;28;20412;-68
2022/09/12 04:49:02;;;;;;;6.17;5.60;;;10.60;92.30;;;;;;5073201;28;20462;-72
2022/09/12 04:51:33;;;;;;;6.10;5.60;;;10.60;94.00;;;;;;5073128;28;20402;-68
2022/09/12 04:54:01;;;;;;;7.20;6.47;;;10.60;93.30;;;;;;5073020;28;20863;-71
2022/09/12 04:56:28;;;;;;;9.47;5.53;;;10.60;92.90;;;;;;5072314;28;20395;-72
2022/09/12 04:58:57;;;;;;;6.50;5.90;;;10.60;92.30;;;;;;5073100;28;20482;-68
2022/09/12 05:01:23;;;;;;;8.60;7.53;;;10.60;92.90;;;;;;5072785;28;20407;-68
2022/09/12 05:03:50;;;;;;;7.60;6.80;;;10.60;97.10;;;;;;5072521;28;20724;-72
2022/09/12 05:06:22;;;;;;;9.60;7.77;;;10.60;93.60;;;;;;5072320;28;20984;-73
2022/09/12 05:08:49;;;;;;;8.33;7.43;;;10.60;94.50;;;;;;5072966;28;20394;-68
2022/09/12 05:11:18;;;;;;;7.90;7.10;;;10.60;99.70;;;;;;5072981;28;20370;-73
2022/09/12 05:13:43;;;;;;;7.63;6.90;;;10.70;96.50;;;;;;5073649;28;20372;-69
2022/09/12 05:16:11;;;;;;;8.37;6.83;;;10.70;99.60;;;;;;5072267;28;20486;-68
2022/09/12 05:18:37;;;;;;;8.50;6.77;;;10.70;99.90;;;;;;5072794;28;20202;-68
2022/09/12 05:21:05;;;;;;;9.07;8.13;;;10.70;99.90;;;;;;5072205;28;20381;-69
2022/09/12 05:23:32;;;;;;;8.30;7.00;;;10.80;99.90;;;;;;5054869;28;20846;-73
2022/09/12 05:25:59;;;;;;;6.77;6.07;;;10.80;99.90;;;;;;5072530;28;20527;-73
2022/09/12 05:28:29;;;;;;;6.20;5.70;;;10.90;99.90;;;;;;5054595;28;20959;-72
2022/09/12 05:31:09;;;;;;;6.20;5.70;;;10.90;99.90;;;;;;5072894;28;20462;-75
2022/09/12 05:33:36;;;;;;;6.20;5.60;;;11.00;99.90;;;;;;5054755;28;20883;-75
2022/09/12 05:36:05;;;;;;;5.40;4.97;;;11.00;99.90;;;;;;5053960;28;20891;-75
2022/09/12 05:38:31;;;;;;;5.67;5.27;;;11.10;99.90;;;;;;5053888;28;20419;-72
2022/09/12 05:41:09;;;;;;;11.30;8.03;;;11.10;99.90;;;;;;5054733;28;20383;-72
2022/09/12 05:43:36;;;;;;;6.33;5.63;;;11.20;99.90;;;;;;5054781;28;20832;-73
2022/09/12 05:46:11;;;;;;;7.47;6.70;;;11.20;99.90;;;;;;5053786;28;20431;-72
2022/09/12 05:48:39;;;;;;;9.40;6.50;;;11.20;99.90;;;;;;5054390;28;20418;-69
2022/09/12 05:51:07;;;;;;;5.60;5.20;;;11.30;99.90;;;;;;5072538;28;20876;-69
2022/09/12 05:53:34;;;;;;;6.43;5.83;;;11.30;99.90;;;;;;5054644;28;20379;-71
2022/09/12 05:56:08;;;;;;;7.90;7.10;;;11.40;99.90;;;;;;5071871;28;20411;-68
2022/09/12 05:58:35;;;;;;;8.90;7.37;;;11.50;99.90;;;;;;5071722;28;20436;-68
2022/09/12 06:01:06;;;;;;;9.20;7.33;;;11.60;99.90;;;;;;5054638;28;20807;-69
2022/09/12 06:03:33;;;;;;;8.60;7.77;;;11.60;99.90;;;;;;5073609;28;20379;-72
2022/09/12 06:06:04;;;;;;;9.97;8.90;;;11.70;99.90;;;;;;5075832;28;20418;-69
2022/09/12 06:08:31;;;;;;;11.60;10.10;;;11.70;99.90;;;;;;5075943;28;20477;-69
2022/09/12 06:11:04;;;;;;;13.03;9.70;;;11.80;99.90;;;;;;5076056;28;20471;-72
2022/09/12 06:13:39;;;;;;;11.57;9.20;;;11.90;99.90;;;;;;5076179;28;20396;-67
2022/09/12 06:16:10;;;;;;;10.63;8.93;;;12.00;99.90;;;;;;5074710;28;20407;-69
2022/09/12 06:18:37;;;;;;;11.10;8.73;;;12.10;99.90;;;;;;5057726;28;20434;-69
2022/09/12 06:21:08;;;;;;;10.83;8.87;;;12.10;99.90;;;;;;5075931;28;20400;-69
2022/09/12 06:23:35;;;;;;;10.83;8.63;;;12.20;99.90;;;;;;5076001;28;20495;-70
2022/09/12 06:26:03;;;;;;;9.67;8.40;;;12.30;99.90;;;;;;5075015;28;20438;-70
2022/09/12 06:28:29;;;;;;;19.43;8.10;;;12.40;99.90;;;;;;5075637;28;20759;-69
2022/09/12 06:31:09;;;;;;;10.10;7.60;;;12.50;99.90;;;;;;5058251;28;20391;-68
2022/09/12 06:34:02;;;;;;;9.13;7.83;;;12.60;99.90;;;;;;5075183;28;20516;-69
2022/09/12 06:36:30;;;;;;;9.63;7.87;;;12.70;99.90;;;;;;5074253;28;20413;-72
2022/09/12 06:38:59;;;;;;;7.80;7.00;;;12.80;99.90;;;;;;5075526;28;20929;-68
2022/09/12 06:41:26;;;;;;;8.40;7.10;;;12.80;99.90;;;;;;5075457;28;20401;-72
2022/09/12 06:43:53;;;;;;;13.10;6.60;;;12.90;99.90;;;;;;5057613;28;20434;-68
2022/09/12 06:46:19;;;;;;;8.63;7.03;;;13.10;99.90;;;;;;5056809;28;20455;-72
2022/09/12 06:48:45;;;;;;;9.03;6.20;;;13.20;99.90;;;;;;5090790;28;20924;-69
2022/09/12 06:51:22;;;;;;;8.07;5.87;;;13.30;99.90;;;;;;5056843;28;20405;-72
2022/09/12 07:01:16;;;;;;;8.50;7.10;;;13.70;99.90;;;;;;5075077;28;20454;-68
2022/09/12 07:03:47;;;;;;;7.70;6.90;;;13.80;99.90;;;;;;5057003;28;20514;-72
2022/09/12 07:06:28;;;;;;;7.00;6.40;;;13.90;99.90;;;;;;5056350;28;20522;-72
2022/09/12 07:08:58;;;;;;;6.63;6.03;;;14.00;99.90;;;;;;5074091;28;20460;-68
2022/09/12 07:11:29;;;;;;;5.40;4.90;;;14.10;99.90;;;;;;5075078;28;20484;-73
2022/09/12 07:13:58;;;;;;;8.03;5.53;;;14.10;99.90;;;;;;5074796;28;20881;-73
2022/09/12 07:16:27;;;;;;;6.80;5.10;;;14.30;99.90;;;;;;5089913;28;20421;-69
2022/09/12 07:18:56;;;;;;;6.10;5.57;;;14.40;99.90;;;;;;5074707;28;20458;-72
2022/09/12 07:21:26;;;;;;;5.73;5.27;;;14.50;99.90;;;;;;5056800;28;20413;-68
2022/09/12 07:23:54;;;;;;;5.47;4.97;;;14.60;99.90;;;;;;5056846;28;20440;-68
2022/09/12 07:26:20;;;;;;;4.83;4.43;;;14.70;99.90;;;;;;5073881;28;20535;-68
2022/09/12 07:28:52;;;;;;;4.77;4.27;;;14.80;99.90;;;;;;5073962;28;20547;-68
2022/09/12 07:31:22;;;;;;;4.00;3.70;;;14.80;99.90;;;;;;5074308;28;20397;-72
2022/09/12 07:34:08;;;;;;;4.00;3.70;;;14.90;99.90;;;;;;5056575;28;20440;-69
2022/09/12 07:36:35;;;;;;;4.13;3.83;;;15.00;99.90;;;;;;5058177;28;20420;-69
2022/09/12 07:39:01;;;;;;;4.00;3.60;;;15.10;99.90;;;;;;5073131;28;20444;-69
2022/09/12 07:41:38;;;;;;;7.13;3.70;;;15.20;99.90;;;;;;5074395;28;20401;-73
2022/09/12 07:44:08;;;;;;;3.63;3.10;;;15.30;99.90;;;;;;5074186;28;20405;-68
2022/09/12 07:46:38;;;;;;;3.17;2.80;;;15.40;99.90;;;;;;5073064;28;20479;-69
2022/09/12 07:49:04;;;;;;;5.23;3.03;;;15.50;99.90;;;;;;5073938;28;20425;-68
2022/09/12 07:51:30;;;;;;;5.60;3.80;;;15.60;99.90;;;;;;5074277;28;20397;-72
2022/09/12 07:53:57;;;;;;;10.93;3.20;;;15.70;99.90;;;;;;5074199;28;20996;-68
2022/09/12 07:56:27;;;;;;;3.93;3.63;;;15.80;99.90;;;;;;5089127;28;20417;-72
2022/09/12 07:58:55;;;;;;;3.70;3.40;;;15.80;99.90;;;;;;5073944;28;20511;-68
2022/09/12 08:01:27;;;;;;;3.00;2.80;;;16.00;99.90;;;;;;5073907;28;20885;-72
2022/09/12 08:03:56;;;;;;;3.30;3.00;;;16.10;99.90;;;;;;5073795;28;20422;-68
2022/09/12 08:06:23;;;;;;;2.53;2.33;;;16.20;99.90;;;;;;5054705;28;21002;-70
2022/09/12 08:08:50;;;;;;;3.30;3.10;;;16.40;99.90;;;;;;5073687;28;20979;-72
2022/09/12 08:11:18;;;;;;;2.67;2.47;;;16.50;99.90;;;;;;5089499;28;20412;-72
2022/09/12 08:13:44;;;;;;;2.37;2.27;;;16.50;99.90;;;;;;5055824;28;20499;-73
2022/09/12 08:16:16;;;;;;;3.03;2.83;;;16.60;94.40;;;;;;5055478;28;20424;-72
2022/09/12 08:21:32;;;;;;;2.63;2.50;;;16.80;77.90;;;;;;5011256;28;20415;-68
2022/09/12 08:24:03;;;;;;;3.40;2.90;;;16.90;67.90;;;;;;5064600;28;20427;-72
2022/09/12 08:26:30;;;;;;;3.10;2.90;;;16.90;53.80;;;;;;5071727;28;20405;-72
2022/09/12 08:28:56;;;;;;;2.50;2.30;;;17.00;66.30;;;;;;5055617;28;21009;-72
2022/09/12 08:31:24;;;;;;;2.27;2.07;;;17.20;48.70;;;;;;5073447;28;20389;-70
2022/09/12 08:33:50;;;;;;;2.60;2.40;;;17.30;63.90;;;;;;5073342;28;20888;-68
2022/09/12 08:36:21;;;;;;;2.50;2.30;;;17.50;55.30;;;;;;5072907;28;20796;-68
2022/09/12 08:38:57;;;;;;;2.37;2.17;;;17.50;35.00;;;;;;5055656;28;20507;-68
2022/09/12 08:41:37;;;;;;;2.67;2.47;;;17.60;33.40;;;;;;5073271;28;20425;-71
2022/09/12 08:44:39;;;;;;;3.60;2.10;;;17.70;21.00;;;;;;5054506;28;20916;-72
2022/09/12 08:47:25;;;;;;;3.13;1.97;;;17.80;3.50;;;;;;5054861;28;20416;-69
2022/09/12 08:50:14;;;;;;;2.80;2.50;;;17.90;1.00;;;;;;5055129;28;20436;-68
2022/09/12 08:53:01;;;;;;;3.70;2.60;;;17.90;1.00;;;;;;5073109;28;20404;-67
2022/09/12 08:55:32;;;;;;;2.50;2.30;;;17.90;1.00;;;;;;5073183;28;20408;-72
2022/09/12 08:58:16;;;;;;;2.00;1.90;;;18.10;1.00;;;;;;5054520;28;20437;-68
2022/09/12 09:00:48;;;;;;;3.77;3.10;;;18.20;1.00;;;;;;5037978;28;20515;-71
2022/09/12 09:03:55;;;;;;;3.30;2.07;;;18.30;1.00;;;;;;5055016;28;21011;-68
2022/09/12 09:06:43;;;;;;;2.27;2.07;;;18.50;1.00;;;;;;5053973;28;20459;-70
2022/09/12 09:09:21;;;;;;;3.57;3.10;;;18.80;1.00;;;;;;5054923;28;20444;-73
2022/09/12 09:12:22;;;;;;;2.70;2.50;;;18.90;1.00;;;;;;5054842;28;20448;-73
2022/09/12 09:15:25;;;;;;;2.47;2.03;;;19.00;1.00;;;;;;5044517;28;20427;-74
2022/09/12 09:18:07;;;;;;;2.30;2.10;;;19.10;1.00;;;;;;4999462;28;20575;-74
2022/09/12 09:20:44;;;;;;;3.60;2.33;;;19.20;1.00;;;;;;5072806;28;20412;-68
2022/09/12 09:23:21;;;;;;;2.00;1.90;;;19.40;1.00;;;;;;5072731;28;20403;-69
2022/09/12 09:26:08;;;;;;;2.43;2.23;;;19.40;1.00;;;;;;5072305;28;20470;-74
2022/09/12 09:28:39;;;;;;;4.57;2.47;;;19.50;1.00;;;;;;5054843;28;20519;-75
2022/09/12 09:31:13;;;;;;;2.43;2.23;;;19.60;1.00;;;;;;5072667;28;20480;-71
2022/09/12 09:33:39;;;;;;;2.70;2.50;;;19.70;1.00;;;;;;5054533;28;20419;-69
2022/09/12 09:36:21;;;;;;;4.40;2.30;;;19.80;1.00;;;;;;5052591;28;20432;-69
2022/09/12 09:38:58;;;;;;;2.93;2.73;;;19.90;1.00;;;;;;5081844;28;20188;-74
2022/09/12 09:41:41;;;;;;;2.33;2.07;;;20.00;1.00;;;;;;5071777;28;20522;-67
2022/09/12 09:44:07;;;;;;;3.57;1.97;;;20.10;1.00;;;;;;5078054;28;20427;-74
2022/09/12 09:46:33;;;;;;;2.17;1.97;;;20.20;1.00;;;;;;5067133;28;20431;-73
2022/09/12 09:49:02;;;;;;;2.40;2.20;;;20.40;1.00;;;;;;5088715;28;20432;-68
2022/09/12 09:51:43;;;;;;;2.00;1.83;;;20.40;1.00;;;;;;5083219;28;20415;-71
2022/09/12 09:54:27;;;;;;;3.43;2.70;;;20.40;1.00;;;;;;5095503;28;20399;-74
2022/09/12 09:56:52;;;;;;;3.57;1.90;;;20.50;1.00;;;;;;5071634;28;20499;-71
2022/09/12 09:59:26;;;;;;;2.40;2.20;;;20.60;1.00;;;;;;5075915;28;20879;-69
2022/09/12 10:02:04;;;;;;;2.47;2.10;;;20.60;1.00;;;;;;5076075;28;20623;-71
2022/09/12 10:04:37;;;;;;;13.57;8.37;;;20.70;1.00;;;;;;5058117;28;20455;-68
2022/09/12 10:07:04;;;;;;;3.40;2.20;;;20.70;1.00;;;;;;5057736;28;20455;-71
2022/09/12 10:09:35;;;;;;;3.47;2.30;;;20.60;1.00;;;;;;5075713;28;20455;-71
2022/09/12 10:12:27;;;;;;;3.00;2.47;;;20.70;1.00;;;;;;5058080;28;20412;-71
2022/09/12 10:15:15;;;;;;;5.30;2.77;;;20.80;1.00;;;;;;5075977;28;20500;-68
2022/09/12 10:17:44;;;;;;;3.03;2.83;;;20.80;1.00;;;;;;5075215;28;20415;-71
2022/09/12 10:20:41;;;;;;;2.00;1.90;;;20.80;1.00;;;;;;5075904;28;20498;-71
2022/09/12 10:23:32;;;;;;;2.30;1.80;;;20.80;1.00;;;;;;5057784;28;20416;-68
2022/09/12 10:26:02;;;;;;;3.90;2.60;;;21.00;1.00;;;;;;5057120;28;20862;-70
2022/09/12 10:28:38;;;;;;;3.20;2.73;;;21.10;1.00;;;;;;5075234;28;20436;-69
2022/09/12 10:31:06;;;;;;;2.33;2.13;;;21.00;1.00;;;;;;5075799;28;20434;-72
2022/09/12 10:33:40;;;;;;;2.80;2.60;;;21.10;1.00;;;;;;5075764;28;20462;-72
2022/09/12 10:36:06;;;;;;;9.40;6.50;;;21.00;1.00;;;;;;5057000;28;20518;-71
2022/09/12 10:38:33;;;;;;;2.60;2.40;;;21.00;1.00;;;;;;5075542;28;20448;-72
2022/09/12 10:41:10;;;;;;;3.03;2.80;;;20.90;1.00;;;;;;5075669;28;20420;-72
2022/09/12 10:43:38;;;;;;;5.67;2.37;;;20.70;1.00;;;;;;5075458;28;20431;-68
2022/09/12 10:46:26;;;;;;;2.60;2.40;;;20.60;1.00;;;;;;5074154;28;20817;-72
2022/09/12 10:49:30;;;;;;;4.30;3.63;;;20.60;1.00;;;;;;5074910;28;20429;-73
2022/09/12 10:51:59;;;;;;;2.43;2.20;;;20.50;1.00;;;;;;5057425;28;20416;-73
2022/09/12 10:54:27;;;;;;;6.23;2.80;;;20.40;1.00;;;;;;5075122;28;20409;-72
2022/09/12 10:57:17;;;;;;;3.20;2.30;;;20.40;1.00;;;;;;5074685;28;20731;-72
2022/09/12 11:00:05;;;;;;;2.63;2.43;;;20.40;1.00;;;;;;5075258;28;20420;-71
2022/09/12 11:03:04;;;;;;;4.30;3.90;;;20.40;1.00;;;;;;5056563;28;20413;-72
2022/09/12 11:05:50;;;;;;;3.00;2.60;;;20.60;1.00;;;;;;5057422;28;20495;-72
2022/09/12 11:12:01;;;;;;;3.37;2.13;;;20.80;1.00;;;;;;5075359;28;20855;-72
2022/09/12 11:14:39;;;;;;;2.50;2.33;;;20.80;1.00;;;;;;5075013;28;20859;-68
2022/09/12 11:17:12;;;;;;;2.60;2.40;;;20.80;1.00;;;;;;5074066;28;20412;-69
2022/09/12 11:23:21;;;;;;;2.57;2.43;;;20.60;1.00;;;;;;5075054;28;20454;-72
2022/09/12 11:26:31;;;;;;;3.40;3.10;;;20.60;1.00;;;;;;5056653;28;20451;-69
2022/09/12 11:29:16;;;;;;;1.90;1.80;;;20.80;1.00;;;;;;5053941;28;20850;-73
2022/09/12 11:31:57;;;;;;;2.63;1.73;;;20.60;1.00;;;;;;5074748;28;20844;-70
2022/09/12 11:34:57;;;;;;;4.10;2.70;;;20.70;1.00;;;;;;5074541;28;20499;-72
2022/09/12 11:37:42;;;;;;;2.73;2.50;;;20.80;1.00;;;;;;5073163;28;20405;-73
2022/09/12 11:40:18;;;;;;;2.47;2.27;;;20.80;1.00;;;;;;5074427;28;20458;-73
2022/09/12 11:42:46;;;;;;;1.97;1.87;;;20.70;1.00;;;;;;5074399;28;20388;-74
2022/09/12 11:45:18;;;;;;;1.80;1.70;;;20.70;1.00;;;;;;5074167;28;20483;-68
2022/09/12 11:47:51;;;;;;;2.07;1.97;;;20.80;1.00;;;;;;5073778;28;20399;-72
2022/09/12 11:50:31;;;;;;;2.13;1.97;;;20.90;1.00;;;;;;5074429;28;20389;-69
2022/09/12 11:53:19;;;;;;;2.00;1.90;;;21.00;1.00;;;;;;5074197;28;20735;-74
2022/09/12 11:56:05;;;;;;;1.97;1.87;;;21.00;1.00;;;;;;5055944;28;20424;-73
2022/09/12 11:58:31;;;;;;;2.00;1.90;;;21.10;1.00;;;;;;5074028;28;20417;-77
2022/09/12 12:01:12;;;;;;;3.20;1.90;;;21.00;1.00;;;;;;5073305;28;20407;-68
2022/09/12 12:03:42;;;;;;;4.37;3.10;;;21.00;1.00;;;;;;5073895;28;20182;-75
2022/09/12 12:06:36;;;;;;;3.53;3.20;;;21.10;1.00;;;;;;5073282;28;20479;-75
2022/09/12 12:09:03;;;;;;;2.17;2.07;;;21.00;1.00;;;;;;5073039;28;20437;-72
2022/09/12 12:11:36;;;;;;;2.20;2.00;;;21.10;1.00;;;;;;5073156;28;20420;-70
2022/09/12 12:14:47;;;;;;;2.33;2.23;;;21.10;1.00;;;;;;5073754;28;20408;-74
2022/09/12 12:17:18;;;;;;;2.23;2.13;;;21.10;1.00;;;;;;4972163;28;20439;-69
2022/09/12 12:19:55;;;;;;;3.03;2.83;;;20.90;1.00;;;;;;5056697;28;20524;-69
2022/09/12 12:22:23;;;;;;;2.83;2.50;;;20.90;1.00;;;;;;5073738;28;20427;-69
2022/09/12 12:25:03;;;;;;;4.80;4.40;;;20.90;1.00;;;;;;5073635;28;20454;-68
2022/09/12 12:27:55;;;;;;;3.10;2.80;;;20.90;1.00;;;;;;5072774;28;20500;-73
2022/09/12 12:30:30;;;;;;;2.57;2.37;;;21.10;1.00;;;;;;5072989;28;20450;-73
2022/09/12 12:32:59;;;;;;;2.00;1.90;;;21.00;1.00;;;;;;5073550;28;20889;-68
2022/09/12 12:36:01;;;;;;;2.20;2.10;;;20.90;1.00;;;;;;5055447;28;20409;-74
2022/09/12 12:38:35;;;;;;;2.03;1.93;;;21.00;1.00;;;;;;5073510;28;20451;-74
2022/09/12 12:41:19;;;;;;;2.80;2.60;;;21.10;1.00;;;;;;5073315;28;20766;-72
2022/09/12 12:43:51;;;;;;;3.17;2.83;;;21.20;1.00;;;;;;5073342;28;20401;-73
2022/09/12 12:50:02;;;;;;;3.03;2.83;;;21.50;1.00;;;;;;5011301;28;20423;-73
2022/09/12 12:52:31;;;;;;;3.50;3.20;;;21.60;1.00;;;;;;5031133;28;20743;-74
2022/09/12 12:55:00;;;;;;;3.23;2.87;;;21.50;1.00;;;;;;5073334;28;20411;-69
2022/09/12 12:57:50;;;;;;;2.97;2.87;;;21.60;1.00;;;;;;5072318;28;20426;-73
2022/09/12 13:00:19;;;;;;;3.10;2.90;;;21.60;1.00;;;;;;5061060;28;20417;-68
2022/09/12 13:03:00;;;;;;;2.67;2.20;;;21.70;1.00;;;;;;5055136;28;20412;-74
2022/09/12 13:05:29;;;;;;;3.40;2.80;;;21.80;1.00;;;;;;5072488;28;20451;-72
2022/09/12 13:08:20;;;;;;;3.20;2.90;;;21.90;1.00;;;;;;5072101;28;20472;-73
2022/09/12 13:11:26;;;;;;;3.20;2.53;;;22.00;1.00;;;;;;5072470;28;20417;-72
2022/09/12 13:13:57;;;;;;;3.30;3.10;;;22.10;1.00;;;;;;5053773;28;20435;-69
2022/09/12 13:16:35;;;;;;;2.00;1.90;;;22.10;1.00;;;;;;5072187;28;20405;-72
2022/09/12 13:19:04;;;;;;;2.77;2.57;;;22.30;1.00;;;;;;5072772;28;20503;-69
2022/09/12 13:21:30;;;;;;;4.13;2.97;;;22.50;1.00;;;;;;5072324;28;20455;-68
2022/09/12 13:24:02;;;;;;;2.30;2.10;;;22.40;1.00;;;;;;5072734;28;20521;-72
2022/09/12 13:26:34;;;;;;;2.30;2.10;;;22.40;1.00;;;;;;5072115;28;20444;-73
2022/09/12 13:29:17;;;;;;;2.20;2.10;;;22.40;1.00;;;;;;5072947;28;20454;-68
2022/09/12 13:31:48;;;;;;;2.33;2.13;;;22.30;1.00;;;;;;5072757;28;20393;-72
2022/09/12 13:34:22;;;;;;;2.80;2.47;;;22.20;1.00;;;;;;5072605;28;20450;-67
2022/09/12 13:37:10;;;;;;;1.83;1.73;;;22.00;1.00;;;;;;5071927;28;20469;-72
2022/09/12 13:39:47;;;;;;;2.60;2.20;;;21.90;1.00;;;;;;5053986;28;20864;-66
2022/09/12 13:42:36;;;;;;;2.53;2.00;;;21.90;1.00;;;;;;5072610;28;20411;-67
2022/09/12 13:45:10;;;;;;;3.73;2.60;;;21.90;1.00;;;;;;5072543;28;20471;-68
2022/09/12 13:47:43;;;;;;;3.20;2.90;;;22.00;1.00;;;;;;5071895;28;20412;-68